Bigand, Argentina
Current Conditions -  °F | °C
As of 3:00 AM on Saturday 20 Dec 2014 (Local Time) from SAAR Reporting Station
Broken Clouds Broken Clouds  
Wind Chill: 26°   Ceiling: 20000
Heat Index: 27°   Visibility: 6mi
Dew Point: 19°   Wind: 9mph
Humidity: 65%   Direction: 360°N
Pressure: 29.47"   Gusts: NA
Location:  33.38°S, 61.18°W
Report Text: SAAR 200600Z 36008KT 9999 SCT022 FEW050CBBKN200 26/19 Q0998
Loading
Personal Weather Stations






























Interactive Weather Map New forecast layout! Learn more

10-Day Weather Forecast

Advertisements
Track Severe Weather on mobile